createdAt,value
2023-03-17T00:02:32.510Z,50
2023-03-17T00:08:02.931Z,50
2023-03-17T00:13:33.474Z,50
2023-03-17T00:19:04.071Z,50
2023-03-17T00:24:34.472Z,50
2023-03-17T00:30:04.932Z,50
2023-03-17T00:35:35.603Z,50
2023-03-17T00:41:06.006Z,50
2023-03-17T00:46:35.988Z,50
2023-03-17T00:52:05.984Z,50
2023-03-17T00:57:36.452Z,50
2023-03-17T01:03:07.026Z,50
2023-03-17T01:08:37.515Z,50
2023-03-17T01:14:08.058Z,50
2023-03-17T01:19:38.673Z,50
2023-03-17T01:25:09.153Z,50
2023-03-17T01:30:39.754Z,50
2023-03-17T01:36:10.241Z,50
2023-03-17T01:41:40.708Z,50
2023-03-17T01:47:11.278Z,50
2023-03-17T01:52:41.753Z,50
2023-03-17T01:58:12.253Z,50
2023-03-17T02:03:41.718Z,50
2023-03-17T02:09:12.213Z,50
2023-03-17T02:14:42.843Z,50.5
2023-03-17T02:20:13.253Z,50.5
2023-03-17T02:25:43.760Z,50
2023-03-17T02:31:14.417Z,50.5
2023-03-17T02:36:44.899Z,50.5
2023-03-17T02:42:15.306Z,50.5
2023-03-17T02:47:44.868Z,50.5
2023-03-17T02:53:15.268Z,50.5
2023-03-17T02:58:45.758Z,50.5
2023-03-17T03:04:15.267Z,50.5
2023-03-17T03:09:45.707Z,50.5
2023-03-17T03:15:16.293Z,50.5
2023-03-17T03:20:46.788Z,50.5
2023-03-17T03:26:17.270Z,50.5
2023-03-17T03:31:46.761Z,50.5
2023-03-17T03:37:17.250Z,50.5
2023-03-17T03:42:47.707Z,50.5
2023-03-17T03:48:18.295Z,50.5
2023-03-17T03:53:48.802Z,50.5
2023-03-17T03:59:19.249Z,50.5
2023-03-17T04:04:49.947Z,50.5
2023-03-17T04:10:20.462Z,50.5
2023-03-17T04:15:51.021Z,50.5
2023-03-17T04:21:21.499Z,50.5
2023-03-17T04:26:52.014Z,50.5
2023-03-17T04:32:22.564Z,50.5
2023-03-17T04:37:53.040Z,50.5
2023-03-17T04:43:23.534Z,50.5
2023-03-17T04:48:54.086Z,50.5
2023-03-17T04:54:24.594Z,50.5
2023-03-17T04:59:55.210Z,50.5
2023-03-17T05:05:25.721Z,50.5
2023-03-17T05:10:56.231Z,50.5
2023-03-17T05:16:25.794Z,50.5
2023-03-17T05:21:56.150Z,50
2023-03-17T05:27:26.627Z,49.5
2023-03-17T05:32:57.274Z,49.5
2023-03-17T05:38:27.723Z,49
2023-03-17T05:43:57.369Z,49
2023-03-17T05:49:27.682Z,48.5
2023-03-17T05:54:58.124Z,48.5
2023-03-17T06:00:29.137Z,48.5
2023-03-17T06:05:59.352Z,48.5
2023-03-17T06:11:29.779Z,48.5
2023-03-17T06:16:59.261Z,48.5
2023-03-17T06:22:29.771Z,48.5
2023-03-17T06:28:00.380Z,48.5
2023-03-17T06:33:30.825Z,48
2023-03-17T06:39:01.307Z,48
2023-03-17T06:44:30.789Z,48
2023-03-17T06:50:01.256Z,48
2023-03-17T06:55:32.354Z,48
2023-03-17T07:01:02.416Z,48
2023-03-17T07:06:32.901Z,48
2023-03-17T07:12:02.410Z,48
2023-03-17T07:17:32.908Z,48
2023-03-17T07:23:03.351Z,48
2023-03-17T07:28:33.967Z,48
2023-03-17T07:34:04.436Z,48
2023-03-17T07:39:35.027Z,47.5
2023-03-17T07:45:05.630Z,47.5
2023-03-17T07:50:36.089Z,47.5
2023-03-17T07:56:06.727Z,47.5
2023-03-17T08:01:37.243Z,47.5
2023-03-17T08:07:07.692Z,47.5
2023-03-17T08:12:38.261Z,47.5
2023-03-17T08:18:08.750Z,47.5
2023-03-17T08:23:39.366Z,47.5
2023-03-17T08:29:09.822Z,47.5
2023-03-17T08:34:40.342Z,47.5
2023-03-17T08:40:10.938Z,47.5
2023-03-17T08:45:41.402Z,47.5
2023-03-17T08:51:11.982Z,47.5
2023-03-17T08:56:42.439Z,47.5
2023-03-17T09:02:13.012Z,47.5
2023-03-17T09:07:43.719Z,47.5
2023-03-17T09:13:14.009Z,47.5
2023-03-17T09:18:44.460Z,47.5
2023-03-17T09:24:14.000Z,47.5
2023-03-17T09:29:44.400Z,47.5
2023-03-17T09:35:15.002Z,47.5
2023-03-17T09:40:45.480Z,47.5
2023-03-17T09:46:15.961Z,47.5
2023-03-17T09:51:45.456Z,47.5
2023-03-17T09:57:16.081Z,47.5
2023-03-17T10:02:46.520Z,47.5
2023-03-17T10:08:30.054Z,47.5
2023-03-17T10:15:59.850Z,47.5
2023-03-17T10:21:30.404Z,47.5
2023-03-17T10:27:00.829Z,47.5
2023-03-17T10:32:31.455Z,47.5
2023-03-17T10:38:13.806Z,47.5
2023-03-17T10:43:31.616Z,47.5
2023-03-17T10:49:01.906Z,47.5
2023-03-17T10:54:32.451Z,47.5
2023-03-17T11:00:02.957Z,47.5
2023-03-17T11:05:33.438Z,48
2023-03-17T11:11:02.882Z,48
2023-03-17T11:16:33.637Z,48
2023-03-17T11:22:03.879Z,48
2023-03-17T11:27:34.474Z,48
2023-03-17T11:33:05.097Z,48
2023-03-17T11:38:34.499Z,48
2023-03-17T11:44:04.932Z,48
2023-03-17T11:49:35.693Z,48
2023-03-17T11:55:06.026Z,48
2023-03-17T12:00:36.487Z,48
2023-03-17T12:06:07.053Z,48
2023-03-17T12:11:37.663Z,48
2023-03-17T12:17:08.174Z,48
2023-03-17T12:22:38.753Z,48
2023-03-17T12:28:09.268Z,48
2023-03-17T12:33:39.728Z,48
2023-03-17T12:39:10.399Z,48
2023-03-17T12:44:40.978Z,48
2023-03-17T12:50:10.380Z,48
2023-03-17T12:55:40.870Z,48
2023-03-17T13:01:11.385Z,48
2023-03-17T13:06:40.842Z,48
2023-03-17T13:12:11.287Z,48
2023-03-17T13:17:41.799Z,48
2023-03-17T13:23:12.386Z,48
2023-03-17T13:28:42.822Z,48
2023-03-17T13:34:13.448Z,48
2023-03-17T13:39:42.959Z,48
2023-03-17T13:45:13.434Z,48
2023-03-17T13:50:42.943Z,48
2023-03-17T13:56:13.414Z,48
2023-03-17T14:01:43.894Z,48
2023-03-17T14:07:13.398Z,48
2023-03-17T14:12:43.849Z,48
2023-03-17T14:18:14.431Z,48
2023-03-17T14:23:44.929Z,48
2023-03-17T14:29:15.374Z,47.5
2023-03-17T14:34:46.000Z,47.5
2023-03-17T14:40:16.516Z,47
2023-03-17T14:45:47.026Z,47
2023-03-17T14:51:17.574Z,47
2023-03-17T14:56:48.087Z,46.5
2023-03-17T15:02:18.660Z,46.5
2023-03-17T15:07:49.135Z,46.5
2023-03-17T15:13:19.628Z,46.5
2023-03-17T15:18:50.295Z,46.5
2023-03-17T15:24:20.778Z,46.5
2023-03-17T15:29:51.285Z,46.5
2023-03-17T15:35:21.868Z,46.5
2023-03-17T15:40:52.330Z,46.5
2023-03-17T15:46:23.038Z,46.5
2023-03-17T15:51:53.406Z,46
2023-03-17T15:57:23.867Z,46
2023-03-17T16:02:54.514Z,47.5
2023-03-17T16:08:24.983Z,47
2023-03-17T16:13:55.418Z,47.5
2023-03-17T16:19:26.039Z,47.5
2023-03-17T16:24:56.483Z,47.5
2023-03-17T16:30:27.101Z,47.5
2023-03-17T16:35:57.640Z,47.5
2023-03-17T16:41:28.039Z,47.5
2023-03-17T16:46:57.636Z,47.5
2023-03-17T16:52:28.084Z,47.5
2023-03-17T16:57:58.547Z,47.5
2023-03-17T17:03:28.055Z,47.5
2023-03-17T17:08:58.511Z,47.5
2023-03-17T17:14:28.958Z,47.5
2023-03-17T17:19:58.628Z,47.5
2023-03-17T17:25:29.095Z,47.5
2023-03-17T17:30:58.661Z,47.5
2023-03-17T17:36:29.136Z,47.5
2023-03-17T17:41:59.734Z,47.5
2023-03-17T17:47:32.150Z,47.5
2023-03-17T17:53:00.701Z,47.5
2023-03-17T17:58:31.183Z,47.5
2023-03-17T18:04:01.777Z,47.5
2023-03-17T18:09:32.365Z,47.5
2023-03-17T18:15:02.894Z,47.5
2023-03-17T18:20:32.773Z,47.5
2023-03-17T18:26:02.831Z,47.5
2023-03-17T18:31:33.557Z,47.5
2023-03-17T18:37:03.927Z,47.5
2023-03-17T18:42:34.378Z,47.5
2023-03-17T18:48:03.890Z,47.5
2023-03-17T18:53:34.334Z,47.5
2023-03-17T18:59:03.850Z,47.5
2023-03-17T19:04:34.322Z,47.5
2023-03-17T19:10:04.764Z,47
2023-03-17T19:15:35.387Z,47
2023-03-17T19:21:05.873Z,47
2023-03-17T19:26:36.388Z,47
2023-03-17T19:32:06.964Z,47
2023-03-17T19:37:37.469Z,47
2023-03-17T19:43:08.059Z,47
2023-03-17T19:48:38.556Z,47
2023-03-17T19:54:09.025Z,47
2023-03-17T20:00:44.584Z,47
2023-03-17T20:06:15.172Z,47
2023-03-17T20:11:45.802Z,47
2023-03-17T20:17:16.246Z,47
2023-03-17T20:22:46.770Z,47
2023-03-17T20:28:17.342Z,48
2023-03-17T20:33:47.904Z,48
2023-03-17T20:39:18.364Z,48
2023-03-17T20:44:48.994Z,47.5
2023-03-17T20:50:19.422Z,48
2023-03-17T20:55:49.899Z,48
2023-03-17T21:01:21.127Z,48
2023-03-17T21:06:49.987Z,48
2023-03-17T21:12:20.562Z,48
2023-03-17T21:17:51.169Z,48.5
2023-03-17T21:23:21.636Z,48.5
2023-03-17T21:28:52.298Z,49
2023-03-17T21:34:22.762Z,49.5
2023-03-17T21:39:53.176Z,49.5
2023-03-17T21:45:23.908Z,50
2023-03-17T21:50:54.282Z,50.5
2023-03-17T21:56:24.768Z,51
2023-03-17T22:01:55.326Z,52
2023-03-17T22:07:25.869Z,52.5
2023-03-17T22:12:55.400Z,52.5
2023-03-17T22:18:25.873Z,52.5
2023-03-17T22:23:56.376Z,52
2023-03-17T22:29:27.015Z,52
2023-03-17T22:34:57.458Z,52
2023-03-17T22:40:27.996Z,52
2023-03-17T22:45:57.481Z,52
2023-03-17T22:51:27.909Z,52
2023-03-17T22:56:58.526Z,52
2023-03-17T23:02:28.980Z,52
2023-03-17T23:07:59.591Z,52
2023-03-17T23:13:30.198Z,52
2023-03-17T23:19:00.659Z,52
2023-03-17T23:24:31.114Z,52
2023-03-17T23:30:01.755Z,52
2023-03-17T23:35:32.368Z,52
2023-03-17T23:41:03.262Z,52.5
2023-03-17T23:46:33.458Z,52.5
2023-03-17T23:52:03.846Z,52.5
2023-03-17T23:58:40.603Z,52.5
